Portada
METAR-TAF:

METAR-TAF

Aeroports :

Constantina, Algèria

latitud: 36-17N, longitud: 006-37E, altitud: 694 m

Observació

L'informe es va fer fa 25 minuts, a les 20:00 UTC
Vent 4 kt del Sud/Sud-Est
Temperatura 29°C
Humitat 27%
Pressió 1019 hPa
Visibilitat 10 km o més
sense núvols per sota de 1500 mi sense presència de cumulonimbus.

METAR: DABC 152000Z 15004KT CAVOK 29/08 Q1019

Hora: 21:25 (20:25 UTC)

Pronòstic

L'informe es va fer fa 3 hores i 25 minuts, a les 17:00 UTC
Pronòstic vàlid del 15 a les 18 UTC al 16 a les 18 UTC
Vent 12 kt del Est
Visibilitat 10 km o més
sense núvols per sota de 1500 mi sense presència de cumulonimbus.
Evolucionant progressivament
l' 15 a les 19 UTC al 15 a les 21 UTC
Vent 6 kt del Est/Nord-Est

TAF: DABC 151700Z 1518/1618 08012KT CAVOK BECMG 1519/1521 06006KT

Observacions i pronòstics meteorològics de més de 4000 aeroports (METAR i TAF).

Les estacions disponibles són els punts grocs i vermells al mapa.

Posi el ratolí al punt desitjat per veure el nom de l'estació.

Feu clic per veure les observacions i els pronòstics meteorològics.

Per canviar el mapa: feu clic els botons verds amb una creu de color negre per apropar; al botó verd amb un guió per allunyar la imatge; o en les fletxes verdes per a mapes adjacents.


METAR-TAF: